Time;durP1;ratioP1;P1;durP2;ratioP2;P2;SDS_P1;SDS_P2;PMS_P1;PMS_P2;Temp;Humidity;BMP_temperature;BMP_pressure;BME280_temperature;BME280_humidity;BME280_pressure;Samples;Min_cycle;Max_cycle;Signal;HPM_P1;HPM_P2
2020/12/06 00:02:13;;;;;;;64.40;35.03;;;4.90;99.90;;;;;;5054851;28;20293;-78
2020/12/06 00:04:40;;;;;;;64.00;36.10;;;4.90;99.90;;;;;;5034554;28;20240;-78
2020/12/06 00:07:06;;;;;;;63.27;33.90;;;5.00;99.90;;;;;;5034208;28;20201;-79
2020/12/06 00:09:33;;;;;;;64.03;36.37;;;5.00;99.90;;;;;;5033998;28;20200;-78
2020/12/06 00:12:00;;;;;;;62.70;34.93;;;5.00;99.90;;;;;;5033872;28;20585;-78
2020/12/06 00:14:27;;;;;;;68.87;36.00;;;5.10;99.90;;;;;;5033804;28;20209;-78
2020/12/06 00:16:53;;;;;;;68.03;35.97;;;5.10;99.90;;;;;;5033554;28;20200;-79
2020/12/06 00:19:20;;;;;;;65.23;34.90;;;5.10;99.90;;;;;;5033877;28;20639;-79
2020/12/06 00:21:47;;;;;;;68.73;35.50;;;5.20;99.90;;;;;;5033399;28;20621;-78
2020/12/06 00:24:14;;;;;;;73.80;37.43;;;5.20;99.90;;;;;;5033196;28;20201;-78
2020/12/06 00:26:42;;;;;;;73.37;38.77;;;5.30;99.90;;;;;;5031976;28;20275;-78
2020/12/06 00:29:08;;;;;;;62.83;35.07;;;5.40;99.90;;;;;;5031973;28;20244;-79
2020/12/06 00:31:35;;;;;;;55.80;33.33;;;5.50;99.90;;;;;;5032840;28;20203;-78
2020/12/06 00:34:02;;;;;;;50.13;30.63;;;5.50;99.90;;;;;;5034856;28;20219;-78
2020/12/06 00:36:29;;;;;;;51.03;31.37;;;5.60;99.90;;;;;;5036709;28;20210;-79
2020/12/06 00:38:56;;;;;;;49.83;30.23;;;5.60;99.90;;;;;;5055393;28;20588;-79
2020/12/06 00:41:23;;;;;;;58.73;33.37;;;5.60;99.90;;;;;;5036546;28;20208;-78
2020/12/06 00:43:50;;;;;;;54.30;32.60;;;5.60;99.90;;;;;;5036043;28;20770;-78
2020/12/06 00:46:20;;;;;;;58.07;34.40;;;5.60;99.90;;;;;;5035083;28;20205;-78
2020/12/06 00:48:48;;;;;;;63.00;34.77;;;5.70;99.90;;;;;;5032165;28;20225;-78
2020/12/06 00:51:15;;;;;;;53.53;35.03;;;5.80;99.90;;;;;;5031955;28;20341;-78
2020/12/06 00:53:43;;;;;;;59.20;35.33;;;5.90;99.90;;;;;;5050425;28;20604;-77
2020/12/06 00:56:19;;;;;;;55.97;35.03;;;5.90;99.90;;;;;;5066744;28;20235;-78
2020/12/06 00:58:47;;;;;;;50.90;32.03;;;6.00;99.90;;;;;;5051925;28;20191;-78
2020/12/06 01:01:15;;;;;;;53.97;32.97;;;6.00;99.90;;;;;;5052331;28;20202;-78
2020/12/06 01:03:42;;;;;;;46.87;31.60;;;6.00;99.90;;;;;;5052691;28;20224;-77
2020/12/06 01:06:16;;;;;;;50.33;32.97;;;6.10;99.90;;;;;;5063217;28;20246;-78
2020/12/06 01:08:44;;;;;;;47.03;30.60;;;6.10;99.90;;;;;;5031995;28;20217;-78
2020/12/06 01:11:12;;;;;;;51.20;32.13;;;6.10;99.90;;;;;;5032719;28;20207;-78
2020/12/06 01:13:39;;;;;;;48.37;32.57;;;6.10;99.90;;;;;;5034197;28;20207;-78
2020/12/06 01:16:05;;;;;;;48.37;32.47;;;6.10;99.90;;;;;;5050463;28;20231;-78
2020/12/06 01:18:32;;;;;;;50.87;34.10;;;6.10;99.90;;;;;;5041130;28;20232;-78
2020/12/06 01:20:59;;;;;;;49.80;31.70;;;6.10;99.90;;;;;;5053161;28;20237;-78
2020/12/06 01:23:26;;;;;;;47.47;32.03;;;6.10;99.90;;;;;;5054698;28;20213;-78
2020/12/06 01:25:53;;;;;;;50.27;33.80;;;6.10;99.90;;;;;;5054127;28;20207;-78
2020/12/06 01:28:20;;;;;;;45.70;32.20;;;6.10;99.90;;;;;;5053464;28;20233;-78
2020/12/06 01:30:46;;;;;;;45.87;32.40;;;6.10;99.90;;;;;;5053481;28;20229;-78
2020/12/06 01:33:14;;;;;;;50.20;33.23;;;6.10;99.90;;;;;;5047050;28;20617;-78
2020/12/06 01:35:40;;;;;;;50.10;31.97;;;6.10;99.90;;;;;;5033631;28;20195;-78
2020/12/06 01:38:07;;;;;;;50.53;33.87;;;6.10;99.90;;;;;;5033947;28;20702;-78
2020/12/06 01:40:39;;;;;;;47.17;32.27;;;6.10;99.90;;;;;;5033895;28;20292;-78
2020/12/06 01:43:07;;;;;;;47.60;33.13;;;6.10;99.90;;;;;;5033958;28;20198;-78
2020/12/06 01:45:36;;;;;;;50.07;34.23;;;6.00;99.90;;;;;;5034876;28;20209;-78
2020/12/06 01:48:07;;;;;;;47.67;33.23;;;6.10;99.90;;;;;;5036483;28;20221;-78
2020/12/06 01:50:38;;;;;;;52.73;34.63;;;6.00;99.90;;;;;;5053594;28;20197;-78
2020/12/06 01:53:06;;;;;;;48.90;33.33;;;6.00;99.90;;;;;;5054309;28;20599;-78
2020/12/06 01:55:33;;;;;;;50.80;34.13;;;6.00;99.90;;;;;;5054160;28;20274;-78
2020/12/06 01:58:05;;;;;;;46.97;31.60;;;6.00;99.90;;;;;;5072247;28;20213;-78
2020/12/06 02:00:33;;;;;;;47.27;33.27;;;6.00;99.90;;;;;;5071734;28;20640;-78
2020/12/06 02:03:00;;;;;;;57.93;35.53;;;6.00;99.90;;;;;;5054395;28;20210;-78
2020/12/06 02:05:31;;;;;;;46.80;33.37;;;6.00;99.90;;;;;;5053274;28;20216;-78
2020/12/06 02:07:59;;;;;;;47.87;32.23;;;6.00;99.90;;;;;;5054892;28;20226;-78
2020/12/06 02:10:30;;;;;;;50.60;33.37;;;6.00;99.90;;;;;;5053521;28;20273;-78
2020/12/06 02:12:58;;;;;;;50.47;32.80;;;6.00;99.90;;;;;;5054446;28;20203;-78
2020/12/06 02:15:24;;;;;;;51.53;34.07;;;6.00;99.90;;;;;;5072662;28;20259;-78
2020/12/06 02:17:51;;;;;;;48.53;34.20;;;6.00;99.90;;;;;;5053325;28;20209;-79
2020/12/06 02:20:19;;;;;;;58.17;37.20;;;6.10;99.90;;;;;;5053963;28;20628;-78
2020/12/06 02:22:46;;;;;;;48.40;33.80;;;6.00;99.90;;;;;;5054003;28;20217;-78
2020/12/06 02:25:13;;;;;;;51.03;33.03;;;6.10;99.90;;;;;;5053637;28;20258;-78
2020/12/06 02:27:40;;;;;;;49.50;32.80;;;6.10;99.90;;;;;;5052790;28;20221;-79
2020/12/06 02:30:07;;;;;;;49.80;33.33;;;6.00;99.90;;;;;;5053444;28;20237;-78
2020/12/06 02:32:34;;;;;;;50.73;32.37;;;6.10;99.90;;;;;;5053017;28;20654;-79
2020/12/06 02:35:00;;;;;;;47.33;31.63;;;6.10;99.90;;;;;;5054012;28;20205;-78
2020/12/06 02:37:27;;;;;;;44.80;31.17;;;6.10;99.90;;;;;;5054694;28;20204;-79
2020/12/06 02:39:54;;;;;;;52.07;33.47;;;6.10;99.90;;;;;;5054066;28;20206;-78
2020/12/06 02:42:21;;;;;;;45.07;31.13;;;6.10;99.90;;;;;;5053500;28;20198;-78
2020/12/06 02:44:47;;;;;;;48.70;31.97;;;6.10;99.90;;;;;;5054377;28;20201;-79
2020/12/06 02:47:14;;;;;;;50.77;32.73;;;6.00;99.90;;;;;;5054652;28;20213;-78
2020/12/06 02:49:41;;;;;;;43.40;29.97;;;6.00;99.90;;;;;;5057257;28;20227;-79
2020/12/06 02:52:08;;;;;;;47.43;31.43;;;6.00;99.90;;;;;;5057698;28;20259;-78
2020/12/06 02:54:36;;;;;;;47.73;32.37;;;6.00;99.90;;;;;;5057622;28;20653;-78
2020/12/06 02:57:03;;;;;;;45.43;30.43;;;6.00;99.90;;;;;;5057583;28;20206;-78
2020/12/06 02:59:30;;;;;;;49.47;32.27;;;6.00;99.90;;;;;;5075567;28;20217;-79
2020/12/06 03:01:57;;;;;;;47.23;32.07;;;6.00;99.90;;;;;;5057659;28;20227;-78
2020/12/06 03:04:23;;;;;;;48.53;30.57;;;6.00;99.90;;;;;;5042140;28;20263;-78
2020/12/06 03:06:50;;;;;;;44.13;31.03;;;6.00;99.90;;;;;;5038102;28;20221;-78
2020/12/06 03:09:17;;;;;;;51.27;32.33;;;6.00;99.90;;;;;;5063685;28;20225;-78
2020/12/06 03:11:43;;;;;;;47.03;33.10;;;6.00;99.90;;;;;;5058242;28;20197;-78
2020/12/06 03:14:10;;;;;;;48.13;31.60;;;5.90;99.90;;;;;;5058048;28;20737;-78
2020/12/06 03:16:37;;;;;;;48.47;32.37;;;6.00;99.90;;;;;;5057599;28;20209;-78
2020/12/06 03:19:04;;;;;;;53.90;33.17;;;6.00;99.90;;;;;;5076355;28;20211;-78
2020/12/06 03:21:30;;;;;;;45.33;31.57;;;5.90;99.90;;;;;;5056204;28;21027;-78
2020/12/06 03:23:57;;;;;;;44.73;31.53;;;5.90;99.90;;;;;;5074663;28;20208;-78
2020/12/06 03:26:24;;;;;;;42.53;29.57;;;5.90;99.90;;;;;;5057261;28;20233;-78
2020/12/06 03:28:51;;;;;;;41.60;31.37;;;5.90;99.90;;;;;;5056407;28;20718;-78
2020/12/06 03:31:18;;;;;;;45.63;31.47;;;5.90;99.90;;;;;;5060214;28;20203;-81
2020/12/06 03:33:45;;;;;;;45.40;29.60;;;5.90;99.90;;;;;;5067362;28;20213;-80
2020/12/06 03:36:11;;;;;;;47.83;29.87;;;5.90;99.90;;;;;;5084468;28;20210;-81
2020/12/06 03:38:38;;;;;;;42.07;31.10;;;5.90;99.90;;;;;;5085694;28;20206;-80
2020/12/06 03:41:05;;;;;;;47.37;30.70;;;5.90;99.90;;;;;;5069249;28;20205;-80
2020/12/06 03:43:32;;;;;;;46.37;31.10;;;5.90;99.90;;;;;;5068532;28;20480;-81
2020/12/06 03:45:58;;;;;;;43.63;29.87;;;5.90;99.90;;;;;;5068210;28;20199;-80
2020/12/06 03:48:25;;;;;;;47.60;30.77;;;5.90;99.90;;;;;;5057066;28;20308;-80
2020/12/06 03:50:52;;;;;;;45.70;31.60;;;5.90;99.90;;;;;;5055395;28;20205;-80
2020/12/06 03:53:19;;;;;;;42.90;30.37;;;5.90;99.90;;;;;;5056476;28;20208;-79
2020/12/06 03:55:46;;;;;;;43.47;30.87;;;5.90;99.90;;;;;;5056151;28;20202;-80
2020/12/06 03:58:12;;;;;;;49.17;31.70;;;5.90;99.90;;;;;;5055076;28;20198;-80
2020/12/06 04:00:39;;;;;;;42.20;29.83;;;5.90;99.90;;;;;;5055887;28;20226;-78
2020/12/06 04:03:06;;;;;;;43.60;29.53;;;5.80;99.90;;;;;;5049881;28;20619;-78
2020/12/06 04:05:32;;;;;;;41.53;30.37;;;5.80;99.90;;;;;;5035428;28;20207;-78
2020/12/06 04:07:59;;;;;;;40.30;29.57;;;5.80;99.90;;;;;;5036784;28;20652;-78
2020/12/06 04:10:26;;;;;;;43.10;29.83;;;5.80;99.90;;;;;;5054007;28;20239;-78
2020/12/06 04:12:53;;;;;;;47.33;29.73;;;5.90;99.90;;;;;;5035364;28;20202;-78
2020/12/06 04:15:20;;;;;;;45.90;30.33;;;5.80;99.90;;;;;;5053792;28;20659;-78
2020/12/06 04:17:47;;;;;;;43.70;29.07;;;5.90;99.90;;;;;;5036738;28;20438;-79
2020/12/06 04:20:14;;;;;;;48.33;31.53;;;5.80;99.90;;;;;;5035948;28;20207;-78
2020/12/06 04:22:41;;;;;;;48.10;31.00;;;5.80;99.90;;;;;;5053692;28;20201;-78
2020/12/06 04:25:08;;;;;;;47.57;31.17;;;5.80;99.90;;;;;;5035686;28;20656;-78
2020/12/06 04:27:35;;;;;;;46.83;30.57;;;5.80;99.90;;;;;;5035719;28;20538;-78
2020/12/06 04:30:02;;;;;;;46.03;31.27;;;5.70;99.90;;;;;;5035175;28;20234;-78
2020/12/06 04:32:29;;;;;;;41.30;29.80;;;5.70;99.90;;;;;;5033841;28;20214;-78
2020/12/06 04:34:56;;;;;;;46.23;29.17;;;5.70;99.90;;;;;;5032295;28;20213;-78
2020/12/06 04:37:22;;;;;;;41.27;28.93;;;5.80;99.90;;;;;;5032761;28;20201;-78
2020/12/06 04:39:49;;;;;;;43.87;30.17;;;5.70;99.90;;;;;;5032377;28;20709;-78
2020/12/06 04:42:20;;;;;;;41.07;27.70;;;5.70;99.90;;;;;;5049761;28;20645;-77
2020/12/06 04:44:47;;;;;;;40.80;28.90;;;5.70;99.90;;;;;;5032910;28;20205;-78
2020/12/06 04:47:22;;;;;;;43.73;29.93;;;5.70;99.90;;;;;;5032949;28;20216;-78
2020/12/06 04:49:56;;;;;;;41.57;29.07;;;5.70;99.90;;;;;;5052262;28;20205;-78
2020/12/06 04:52:28;;;;;;;44.23;29.40;;;5.70;99.90;;;;;;5036987;28;20205;-78
2020/12/06 04:55:06;;;;;;;41.93;27.90;;;5.70;99.90;;;;;;5043274;28;20777;-78
2020/12/06 04:57:37;;;;;;;43.20;28.63;;;5.70;99.90;;;;;;5056382;28;20181;-78
2020/12/06 05:00:09;;;;;;;41.73;28.73;;;5.70;99.90;;;;;;5056840;28;20219;-79
2020/12/06 05:02:42;;;;;;;44.10;29.23;;;5.60;99.90;;;;;;5057481;28;20315;-78
2020/12/06 05:05:12;;;;;;;45.70;29.67;;;5.60;99.90;;;;;;5058029;28;20232;-79
2020/12/06 05:07:39;;;;;;;40.40;29.07;;;5.70;99.90;;;;;;5057958;28;20215;-78
2020/12/06 05:10:07;;;;;;;39.93;28.40;;;5.70;99.90;;;;;;5057785;28;20569;-78
2020/12/06 05:12:34;;;;;;;42.57;27.50;;;5.70;99.90;;;;;;5056316;28;20198;-79
2020/12/06 05:15:00;;;;;;;42.87;27.73;;;5.70;99.90;;;;;;5057282;28;20204;-79
2020/12/06 05:17:27;;;;;;;43.47;29.10;;;5.70;99.90;;;;;;5055634;28;20232;-78
2020/12/06 05:19:54;;;;;;;41.30;27.03;;;5.60;99.90;;;;;;5051865;28;20259;-78
2020/12/06 05:22:25;;;;;;;42.37;28.93;;;5.70;99.90;;;;;;5051840;28;20597;-78
2020/12/06 05:24:54;;;;;;;40.73;27.03;;;5.60;99.90;;;;;;5052127;28;20209;-78
2020/12/06 05:27:20;;;;;;;37.97;26.50;;;5.60;99.90;;;;;;5054159;28;20212;-78
2020/12/06 05:29:47;;;;;;;41.10;27.63;;;5.60;99.90;;;;;;5054642;28;20226;-78
2020/12/06 05:32:15;;;;;;;42.50;28.23;;;5.60;99.90;;;;;;5071505;28;20198;-78
2020/12/06 05:34:42;;;;;;;42.07;29.40;;;5.60;99.90;;;;;;5053259;28;20673;-78
2020/12/06 05:37:08;;;;;;;39.83;27.60;;;5.60;99.90;;;;;;5053446;28;20216;-78
2020/12/06 05:39:35;;;;;;;45.00;28.47;;;5.60;99.90;;;;;;5053801;28;20210;-78
2020/12/06 05:42:02;;;;;;;44.17;27.83;;;5.60;99.90;;;;;;5053508;28;20200;-78
2020/12/06 05:44:29;;;;;;;41.93;28.40;;;5.60;99.90;;;;;;5054268;28;20210;-78
2020/12/06 05:46:59;;;;;;;43.37;27.30;;;5.60;99.90;;;;;;5071518;28;20585;-78
2020/12/06 05:49:25;;;;;;;46.27;28.43;;;5.60;99.90;;;;;;5071540;28;20221;-78
2020/12/06 05:51:53;;;;;;;45.83;27.53;;;5.60;99.90;;;;;;5053800;28;20207;-78
2020/12/06 05:54:24;;;;;;;44.97;29.73;;;5.60;99.90;;;;;;5053211;28;20292;-78
2020/12/06 05:56:52;;;;;;;41.33;27.07;;;5.60;99.90;;;;;;5053194;28;20531;-78
2020/12/06 05:59:23;;;;;;;40.93;28.40;;;5.50;99.90;;;;;;5053197;28;20262;-78
2020/12/06 06:01:53;;;;;;;42.93;28.20;;;5.50;99.90;;;;;;5053193;28;20196;-78
2020/12/06 06:04:22;;;;;;;46.80;28.10;;;5.50;99.90;;;;;;5038063;28;20209;-78
2020/12/06 06:06:51;;;;;;;44.53;28.57;;;5.50;99.90;;;;;;5034179;28;20208;-78
2020/12/06 06:09:19;;;;;;;43.93;28.30;;;5.50;99.90;;;;;;5034541;28;20230;-78
2020/12/06 06:12:05;;;;;;;41.47;28.43;;;5.50;99.90;;;;;;5033764;28;20296;-78
2020/12/06 06:14:32;;;;;;;42.53;28.77;;;5.50;99.90;;;;;;5051794;28;20246;-78
2020/12/06 06:17:00;;;;;;;39.67;27.37;;;5.50;99.90;;;;;;5033957;28;20205;-78
2020/12/06 06:19:27;;;;;;;41.73;28.17;;;5.40;99.90;;;;;;5034452;28;20278;-78
2020/12/06 06:21:56;;;;;;;39.70;27.33;;;5.50;99.90;;;;;;5033928;28;20220;-79
2020/12/06 06:24:25;;;;;;;48.90;29.50;;;5.50;99.90;;;;;;5037493;28;20217;-78
2020/12/06 06:26:53;;;;;;;45.67;28.63;;;5.40;99.90;;;;;;5056075;28;20202;-78
2020/12/06 06:29:21;;;;;;;41.33;27.27;;;5.40;99.90;;;;;;5037502;28;20231;-79
2020/12/06 06:31:51;;;;;;;44.97;30.00;;;5.40;99.90;;;;;;5037825;28;20558;-78
2020/12/06 06:34:23;;;;;;;41.80;28.10;;;5.40;99.90;;;;;;5038284;28;20202;-78
2020/12/06 06:36:51;;;;;;;47.97;30.57;;;5.40;99.90;;;;;;5038490;28;20594;-78
2020/12/06 06:39:20;;;;;;;44.20;28.90;;;5.40;99.90;;;;;;5044999;28;20204;-78
2020/12/06 06:41:57;;;;;;;44.00;28.50;;;5.40;99.90;;;;;;5057872;28;20204;-78
2020/12/06 06:44:26;;;;;;;44.87;29.63;;;5.40;99.90;;;;;;5056673;28;20420;-78
2020/12/06 06:47:01;;;;;;;40.73;28.27;;;5.40;99.90;;;;;;5056249;28;20235;-78
2020/12/06 06:49:28;;;;;;;42.03;27.70;;;5.40;99.90;;;;;;5057349;28;20216;-78
2020/12/06 06:51:57;;;;;;;43.03;27.93;;;5.40;99.90;;;;;;5057122;28;20624;-78
2020/12/06 06:54:29;;;;;;;41.43;27.47;;;5.40;99.90;;;;;;5056530;28;20698;-78
2020/12/06 06:56:57;;;;;;;41.60;26.60;;;5.40;99.90;;;;;;5074517;28;20342;-79
2020/12/06 06:59:47;;;;;;;38.07;26.67;;;5.40;99.90;;;;;;5058114;28;20204;-78
2020/12/06 07:02:30;;;;;;;44.13;27.83;;;5.40;99.90;;;;;;5057527;28;20244;-78
2020/12/06 07:04:57;;;;;;;43.10;26.80;;;5.40;99.90;;;;;;5037221;28;20218;-79
2020/12/06 07:07:43;;;;;;;44.00;27.13;;;5.50;99.90;;;;;;5037353;28;20212;-78
2020/12/06 07:10:13;;;;;;;40.17;26.77;;;5.50;99.90;;;;;;5070289;28;20501;-78
2020/12/06 07:12:45;;;;;;;43.13;27.03;;;5.50;99.90;;;;;;5057813;28;20709;-78
2020/12/06 07:15:14;;;;;;;39.23;26.37;;;5.50;99.90;;;;;;5057564;28;20519;-78
2020/12/06 07:17:41;;;;;;;38.27;27.00;;;5.50;99.90;;;;;;5057597;28;20281;-79
2020/12/06 07:20:12;;;;;;;42.63;27.60;;;5.50;99.90;;;;;;5057430;28;20208;-79
2020/12/06 07:22:39;;;;;;;37.93;25.87;;;5.60;99.90;;;;;;5056928;28;20201;-78
2020/12/06 07:25:09;;;;;;;39.40;26.23;;;5.60;99.90;;;;;;5057316;28;20207;-79
2020/12/06 07:27:36;;;;;;;39.20;26.03;;;5.60;99.90;;;;;;5057698;28;20197;-78
2020/12/06 07:30:09;;;;;;;37.60;26.13;;;5.60;99.90;;;;;;5057067;28;20244;-78
2020/12/06 07:32:36;;;;;;;35.77;25.50;;;5.60;99.90;;;;;;5072772;28;20198;-78
2020/12/06 07:35:05;;;;;;;36.90;25.43;;;5.60;99.90;;;;;;5036355;28;20261;-79
2020/12/06 07:37:32;;;;;;;37.83;26.47;;;5.70;99.90;;;;;;5037700;28;20197;-79
2020/12/06 07:39:59;;;;;;;40.33;26.47;;;5.60;99.90;;;;;;5037500;28;20244;-78
2020/12/06 07:42:27;;;;;;;39.60;26.40;;;5.70;99.90;;;;;;5037860;28;20227;-79
2020/12/06 07:44:56;;;;;;;40.37;27.30;;;5.70;99.90;;;;;;5038310;28;20296;-78
2020/12/06 07:47:25;;;;;;;43.30;28.57;;;5.70;99.90;;;;;;5037597;28;20196;-79
2020/12/06 07:49:56;;;;;;;42.70;28.70;;;5.70;99.90;;;;;;5038506;28;20221;-78
2020/12/06 07:52:27;;;;;;;39.87;27.60;;;5.80;99.90;;;;;;5037579;28;20223;-78
2020/12/06 07:55:01;;;;;;;39.23;27.07;;;5.80;99.90;;;;;;5044763;28;20223;-78
2020/12/06 07:57:40;;;;;;;40.33;27.77;;;5.80;99.90;;;;;;5058364;28;20199;-78
2020/12/06 08:00:13;;;;;;;39.20;27.63;;;5.90;99.90;;;;;;5058032;28;20249;-79
2020/12/06 08:02:48;;;;;;;39.73;27.33;;;5.90;99.90;;;;;;5057627;28;20235;-79
2020/12/06 08:05:19;;;;;;;39.23;27.43;;;5.90;99.90;;;;;;5058651;28;20191;-79
2020/12/06 08:07:51;;;;;;;39.00;27.53;;;6.00;99.90;;;;;;5057813;28;20572;-78
2020/12/06 08:10:19;;;;;;;39.97;26.50;;;6.00;99.90;;;;;;5058467;28;20217;-79
2020/12/06 08:12:49;;;;;;;40.30;27.97;;;6.00;99.90;;;;;;5058338;28;20198;-78
2020/12/06 08:15:15;;;;;;;37.37;27.60;;;6.10;99.90;;;;;;5058288;28;20211;-78
2020/12/06 08:17:45;;;;;;;43.20;28.13;;;6.10;99.90;;;;;;5059785;28;20206;-78
2020/12/06 08:20:14;;;;;;;38.47;26.17;;;6.10;99.90;;;;;;5054660;28;20213;-79
2020/12/06 08:22:57;;;;;;;38.83;29.00;;;6.20;99.90;;;;;;5054515;28;20212;-78
2020/12/06 08:25:34;;;;;;;39.57;25.97;;;6.20;99.90;;;;;;5054777;28;20300;-78
2020/12/06 08:28:02;;;;;;;40.23;27.53;;;6.20;99.90;;;;;;5054648;28;20243;-78
2020/12/06 08:30:31;;;;;;;40.10;28.43;;;6.20;99.90;;;;;;5050904;28;20230;-78
2020/12/06 08:33:03;;;;;;;39.37;29.77;;;6.20;99.90;;;;;;5050628;28;20214;-78
2020/12/06 08:35:48;;;;;;;40.63;28.33;;;6.20;99.90;;;;;;5049950;28;20234;-79
2020/12/06 08:38:29;;;;;;;38.63;27.33;;;6.30;99.90;;;;;;5049406;28;20215;-78
2020/12/06 08:41:05;;;;;;;38.03;27.63;;;6.30;99.90;;;;;;5048904;28;20186;-78
2020/12/06 08:43:44;;;;;;;34.90;26.67;;;6.30;99.90;;;;;;5049267;28;20195;-78
2020/12/06 08:46:12;;;;;;;38.33;28.07;;;6.30;99.90;;;;;;5048413;28;20198;-78
2020/12/06 08:48:41;;;;;;;38.47;28.13;;;6.40;99.90;;;;;;5048938;28;20226;-78
2020/12/06 08:51:26;;;;;;;41.30;27.43;;;6.40;99.90;;;;;;5049210;28;20206;-78
2020/12/06 08:53:54;;;;;;;39.00;26.73;;;6.40;99.90;;;;;;5048640;28;20187;-77
2020/12/06 08:56:35;;;;;;;40.60;28.07;;;6.50;99.90;;;;;;5049149;28;20257;-78
2020/12/06 08:59:13;;;;;;;36.87;27.90;;;6.60;99.90;;;;;;5048750;28;20707;-78
2020/12/06 09:01:53;;;;;;;37.70;27.03;;;6.70;99.90;;;;;;5048725;28;20203;-78
2020/12/06 09:04:22;;;;;;;39.73;26.60;;;6.80;99.90;;;;;;5048822;28;20218;-78
2020/12/06 09:06:54;;;;;;;31.00;23.83;;;7.00;99.90;;;;;;5050571;28;20218;-78
2020/12/06 09:09:21;;;;;;;32.50;24.73;;;7.10;99.90;;;;;;5052426;28;20222;-78
2020/12/06 09:11:56;;;;;;;33.47;25.03;;;7.10;99.90;;;;;;5051003;28;20206;-79
2020/12/06 09:14:25;;;;;;;32.80;24.90;;;7.10;99.90;;;;;;5051821;28;20633;-78
2020/12/06 09:16:52;;;;;;;33.53;25.93;;;7.10;99.90;;;;;;5051295;28;20206;-78
2020/12/06 09:19:19;;;;;;;32.57;25.43;;;7.10;99.90;;;;;;5051030;28;20208;-78
2020/12/06 09:21:46;;;;;;;31.07;22.60;;;7.10;99.90;;;;;;5051566;28;20593;-78
2020/12/06 09:24:12;;;;;;;31.70;22.67;;;7.10;99.90;;;;;;5050956;28;20607;-78
2020/12/06 09:26:39;;;;;;;31.37;23.37;;;7.10;99.90;;;;;;5051064;28;20222;-78
2020/12/06 09:29:06;;;;;;;37.23;28.23;;;7.10;99.90;;;;;;5053013;28;20219;-78
2020/12/06 09:31:33;;;;;;;28.70;21.90;;;7.10;99.90;;;;;;5054679;28;20187;-79
2020/12/06 09:34:00;;;;;;;31.57;23.50;;;7.10;99.90;;;;;;5054134;28;20268;-78
2020/12/06 09:36:29;;;;;;;29.37;22.07;;;7.20;99.90;;;;;;5054036;28;20605;-78
2020/12/06 09:38:56;;;;;;;31.33;24.37;;;7.20;99.90;;;;;;5054292;28;20209;-79
2020/12/06 09:41:23;;;;;;;32.20;23.00;;;7.30;99.90;;;;;;5054892;28;20577;-79
2020/12/06 09:43:49;;;;;;;28.97;22.27;;;7.30;99.90;;;;;;5071774;28;20195;-78
2020/12/06 09:46:16;;;;;;;30.30;22.57;;;7.30;99.90;;;;;;5052568;28;20707;-78
2020/12/06 09:48:43;;;;;;;28.33;22.00;;;7.40;99.90;;;;;;5071294;28;20234;-79
2020/12/06 09:51:10;;;;;;;28.83;21.90;;;7.40;99.90;;;;;;5053798;28;20255;-78
2020/12/06 09:53:37;;;;;;;26.03;20.73;;;7.50;99.90;;;;;;5052728;28;20207;-79
2020/12/06 09:56:04;;;;;;;33.67;24.87;;;7.50;99.90;;;;;;5054197;28;20191;-79
2020/12/06 09:58:31;;;;;;;30.17;21.83;;;7.60;99.90;;;;;;5053376;28;20213;-79
2020/12/06 10:00:58;;;;;;;30.70;21.43;;;7.70;99.90;;;;;;5054227;28;20210;-78
2020/12/06 10:03:25;;;;;;;25.57;20.73;;;7.70;99.90;;;;;;5045607;28;20273;-79
2020/12/06 10:05:52;;;;;;;28.30;20.90;;;7.60;99.90;;;;;;5034634;28;20282;-79
2020/12/06 10:08:19;;;;;;;24.40;20.00;;;7.60;99.90;;;;;;5033668;28;20215;-79
2020/12/06 10:10:45;;;;;;;27.23;21.90;;;7.60;99.90;;;;;;5035068;28;20303;-78
2020/12/06 10:13:12;;;;;;;30.27;22.07;;;7.60;99.90;;;;;;5034137;28;20208;-78
2020/12/06 10:15:39;;;;;;;30.23;22.97;;;7.60;99.90;;;;;;5033838;28;20724;-78
2020/12/06 10:18:06;;;;;;;27.67;22.97;;;7.60;99.90;;;;;;5034068;28;20286;-79
2020/12/06 10:20:33;;;;;;;30.30;23.20;;;7.60;99.90;;;;;;5035955;28;20775;-79
2020/12/06 10:23:00;;;;;;;28.70;23.23;;;7.60;99.90;;;;;;5053946;28;20668;-78
2020/12/06 10:25:26;;;;;;;31.07;24.27;;;7.50;99.90;;;;;;5054918;28;20203;-78
2020/12/06 10:27:53;;;;;;;27.03;21.77;;;7.60;99.90;;;;;;5054135;28;20727;-79
2020/12/06 10:30:20;;;;;;;28.13;22.57;;;7.60;99.90;;;;;;5053559;28;20260;-78
2020/12/06 10:32:47;;;;;;;28.57;22.17;;;7.60;99.90;;;;;;5053863;28;20422;-78
2020/12/06 10:35:14;;;;;;;29.40;22.63;;;7.70;99.90;;;;;;5054478;28;20206;-79
2020/12/06 10:37:40;;;;;;;26.37;20.53;;;7.70;99.90;;;;;;5054342;28;20246;-78
2020/12/06 10:40:07;;;;;;;24.80;20.40;;;7.70;99.90;;;;;;5072638;28;20211;-79
2020/12/06 10:42:34;;;;;;;26.83;18.87;;;7.80;99.90;;;;;;5072951;28;20618;-78
2020/12/06 10:45:02;;;;;;;23.20;18.87;;;7.80;99.90;;;;;;5072493;28;20203;-78
2020/12/06 10:47:29;;;;;;;27.00;19.70;;;7.90;99.90;;;;;;5054988;28;20199;-79
2020/12/06 10:49:56;;;;;;;23.30;18.33;;;7.90;99.90;;;;;;5054663;28;20642;-78
2020/12/06 10:52:23;;;;;;;24.17;18.37;;;7.90;99.90;;;;;;5054185;28;20210;-78
2020/12/06 10:54:51;;;;;;;24.60;18.63;;;8.00;99.90;;;;;;5055226;28;20457;-79
2020/12/06 10:57:19;;;;;;;25.13;19.83;;;8.00;99.90;;;;;;5072651;28;20678;-78
2020/12/06 10:59:46;;;;;;;24.37;18.60;;;8.10;99.90;;;;;;5054538;28;20208;-78
2020/12/06 11:02:13;;;;;;;21.70;17.87;;;8.20;99.90;;;;;;5054837;28;20214;-79
2020/12/06 11:04:40;;;;;;;21.37;17.80;;;8.20;99.90;;;;;;5054984;28;20211;-78
2020/12/06 11:07:06;;;;;;;24.67;19.43;;;8.30;99.90;;;;;;5073053;28;20203;-78
2020/12/06 11:09:33;;;;;;;21.30;18.07;;;8.20;99.90;;;;;;5076962;28;20284;-79
2020/12/06 11:12:01;;;;;;;23.23;19.27;;;8.20;99.90;;;;;;5058901;28;20199;-78
2020/12/06 11:14:28;;;;;;;22.47;17.57;;;8.20;99.90;;;;;;5075647;28;20639;-78
2020/12/06 11:16:56;;;;;;;25.00;19.50;;;8.20;99.90;;;;;;5059928;28;20613;-78
2020/12/06 11:19:23;;;;;;;26.10;19.97;;;8.20;99.90;;;;;;5058857;28;20197;-78
2020/12/06 11:21:53;;;;;;;23.90;18.70;;;8.20;99.90;;;;;;5055054;28;20280;-78
2020/12/06 11:24:21;;;;;;;24.13;18.87;;;8.20;99.90;;;;;;5055728;28;20660;-78
2020/12/06 11:26:48;;;;;;;21.80;17.50;;;8.30;99.90;;;;;;5055731;28;20668;-78
2020/12/06 11:29:15;;;;;;;23.30;19.20;;;8.30;99.90;;;;;;5055176;28;20281;-79
2020/12/06 11:31:42;;;;;;;23.57;19.23;;;8.30;99.90;;;;;;5056050;28;20186;-78
2020/12/06 11:34:10;;;;;;;23.97;19.40;;;8.40;99.90;;;;;;5041011;28;20254;-78
2020/12/06 11:36:37;;;;;;;24.57;19.30;;;8.40;99.90;;;;;;5034643;28;20419;-78
2020/12/06 11:39:04;;;;;;;26.13;20.43;;;8.40;99.90;;;;;;5035955;28;20203;-78
2020/12/06 11:41:31;;;;;;;24.80;19.23;;;8.40;99.90;;;;;;5053486;28;20207;-79
2020/12/06 11:43:57;;;;;;;24.43;19.60;;;8.40;99.90;;;;;;5034991;28;20677;-78
2020/12/06 11:46:24;;;;;;;25.97;20.67;;;8.40;99.90;;;;;;5035741;28;20234;-78
2020/12/06 11:48:51;;;;;;;24.60;20.20;;;8.40;99.90;;;;;;5035490;28;20215;-78
2020/12/06 11:51:19;;;;;;;23.37;19.57;;;8.40;99.90;;;;;;5034819;28;20200;-78
2020/12/06 11:53:46;;;;;;;23.90;20.63;;;8.40;99.90;;;;;;5035371;28;20295;-78
2020/12/06 11:56:13;;;;;;;25.40;20.67;;;8.50;99.90;;;;;;5070876;28;20645;-78
2020/12/06 11:58:44;;;;;;;26.63;20.73;;;8.50;99.90;;;;;;5054670;28;20290;-78
2020/12/06 12:01:11;;;;;;;25.03;21.20;;;8.40;99.90;;;;;;5055865;28;20713;-78
2020/12/06 12:03:39;;;;;;;24.10;20.40;;;8.40;99.90;;;;;;5055446;28;20211;-78
2020/12/06 12:06:06;;;;;;;26.60;21.33;;;8.40;99.90;;;;;;5055177;28;20200;-78
2020/12/06 12:08:33;;;;;;;26.07;21.40;;;8.40;99.90;;;;;;5055762;28;20567;-78
2020/12/06 12:11:00;;;;;;;26.00;20.63;;;8.40;99.90;;;;;;5055009;28;20671;-78
2020/12/06 12:13:27;;;;;;;26.37;22.20;;;8.40;99.90;;;;;;5055545;28;20276;-78
2020/12/06 12:15:54;;;;;;;24.90;21.43;;;8.30;99.90;;;;;;5073853;28;20206;-78
2020/12/06 12:18:21;;;;;;;27.33;22.10;;;8.30;99.90;;;;;;5056172;28;20209;-78
2020/12/06 12:20:49;;;;;;;25.80;21.83;;;8.30;99.90;;;;;;5054345;28;20280;-78
2020/12/06 12:23:17;;;;;;;27.70;22.40;;;8.20;99.90;;;;;;5055812;28;20207;-78
2020/12/06 12:25:44;;;;;;;27.50;21.93;;;8.20;99.90;;;;;;5055665;28;20206;-78
2020/12/06 12:28:12;;;;;;;29.73;22.93;;;8.10;99.90;;;;;;5073744;28;20200;-78
2020/12/06 12:30:39;;;;;;;29.23;22.30;;;8.10;99.90;;;;;;5054876;28;20242;-78
2020/12/06 12:33:06;;;;;;;26.80;21.77;;;8.10;99.90;;;;;;5055134;28;20206;-79
2020/12/06 12:35:34;;;;;;;27.57;22.93;;;8.10;99.90;;;;;;5055674;28;20211;-79
2020/12/06 12:38:01;;;;;;;28.37;22.13;;;8.10;99.90;;;;;;5073073;28;20289;-79
2020/12/06 12:40:28;;;;;;;32.57;25.90;;;8.10;99.90;;;;;;5055726;28;20210;-78
2020/12/06 12:42:56;;;;;;;31.23;24.63;;;8.10;99.90;;;;;;5054718;28;20211;-78